sensor_id;sensor_type;location;lat;lon;timestamp;P1;durP1;ratioP1;P2;durP2;ratioP2
7529;SDS011;3806;52.270;10.544;2023-03-14T00:00:48;3.15;;;1.60;;
7529;SDS011;3806;52.270;10.544;2023-03-14T00:03:17;4.97;;;1.73;;
7529;SDS011;3806;52.270;10.544;2023-03-14T00:05:42;2.22;;;1.27;;
7529;SDS011;3806;52.270;10.544;2023-03-14T00:08:11;3.00;;;1.27;;
7529;SDS011;3806;52.270;10.544;2023-03-14T00:10:36;1.55;;;1.17;;
7529;SDS011;3806;52.270;10.544;2023-03-14T00:13:02;4.65;;;1.80;;
7529;SDS011;3806;52.270;10.544;2023-03-14T00:15:28;3.83;;;1.55;;
7529;SDS011;3806;52.270;10.544;2023-03-14T00:17:53;3.40;;;1.10;;
7529;SDS011;3806;52.270;10.544;2023-03-14T00:20:19;2.33;;;1.58;;
7529;SDS011;3806;52.270;10.544;2023-03-14T00:22:44;2.42;;;1.23;;
7529;SDS011;3806;52.270;10.544;2023-03-14T00:25:11;1.63;;;1.00;;
7529;SDS011;3806;52.270;10.544;2023-03-14T00:27:37;2.60;;;1.30;;
7529;SDS011;3806;52.270;10.544;2023-03-14T00:30:03;2.50;;;0.88;;
7529;SDS011;3806;52.270;10.544;2023-03-14T00:32:30;1.25;;;0.93;;
7529;SDS011;3806;52.270;10.544;2023-03-14T00:34:55;0.98;;;0.82;;
7529;SDS011;3806;52.270;10.544;2023-03-14T00:37:21;1.88;;;1.10;;
7529;SDS011;3806;52.270;10.544;2023-03-14T00:39:47;0.95;;;0.65;;
7529;SDS011;3806;52.270;10.544;2023-03-14T00:42:13;1.77;;;1.05;;
7529;SDS011;3806;52.270;10.544;2023-03-14T00:44:38;1.80;;;1.05;;
7529;SDS011;3806;52.270;10.544;2023-03-14T00:47:04;3.30;;;1.33;;
7529;SDS011;3806;52.270;10.544;2023-03-14T00:49:29;6.25;;;2.03;;
7529;SDS011;3806;52.270;10.544;2023-03-14T00:51:55;3.58;;;1.38;;
7529;SDS011;3806;52.270;10.544;2023-03-14T00:54:20;4.72;;;1.73;;
7529;SDS011;3806;52.270;10.544;2023-03-14T00:56:46;2.38;;;1.70;;
7529;SDS011;3806;52.270;10.544;2023-03-14T00:59:12;4.57;;;1.60;;
7529;SDS011;3806;52.270;10.544;2023-03-14T01:01:38;3.40;;;1.70;;
7529;SDS011;3806;52.270;10.544;2023-03-14T01:04:04;3.58;;;1.80;;
7529;SDS011;3806;52.270;10.544;2023-03-14T01:06:30;3.42;;;2.40;;
7529;SDS011;3806;52.270;10.544;2023-03-14T01:08:56;3.53;;;1.55;;
7529;SDS011;3806;52.270;10.544;2023-03-14T01:11:33;2.47;;;1.60;;
7529;SDS011;3806;52.270;10.544;2023-03-14T01:14:00;2.80;;;1.30;;
7529;SDS011;3806;52.270;10.544;2023-03-14T01:16:26;2.50;;;1.05;;
7529;SDS011;3806;52.270;10.544;2023-03-14T01:18:53;2.55;;;0.95;;
7529;SDS011;3806;52.270;10.544;2023-03-14T01:21:20;1.02;;;0.77;;
7529;SDS011;3806;52.270;10.544;2023-03-14T01:23:50;1.55;;;1.02;;
7529;SDS011;3806;52.270;10.544;2023-03-14T01:26:19;1.58;;;1.13;;
7529;SDS011;3806;52.270;10.544;2023-03-14T01:28:47;1.60;;;0.88;;
7529;SDS011;3806;52.270;10.544;2023-03-14T01:31:13;2.38;;;1.15;;
7529;SDS011;3806;52.270;10.544;2023-03-14T01:33:39;7.35;;;1.52;;
7529;SDS011;3806;52.270;10.544;2023-03-14T01:36:05;3.90;;;1.85;;
7529;SDS011;3806;52.270;10.544;2023-03-14T01:38:32;4.03;;;1.67;;
7529;SDS011;3806;52.270;10.544;2023-03-14T01:40:59;6.50;;;1.52;;
7529;SDS011;3806;52.270;10.544;2023-03-14T01:43:28;1.90;;;1.10;;
7529;SDS011;3806;52.270;10.544;2023-03-14T01:48:31;1.92;;;1.50;;
7529;SDS011;3806;52.270;10.544;2023-03-14T01:51:00;1.50;;;0.70;;
7529;SDS011;3806;52.270;10.544;2023-03-14T01:53:27;1.77;;;0.82;;
7529;SDS011;3806;52.270;10.544;2023-03-14T01:55:54;0.68;;;0.50;;
7529;SDS011;3806;52.270;10.544;2023-03-14T01:58:24;0.95;;;0.60;;
7529;SDS011;3806;52.270;10.544;2023-03-14T02:00:52;2.13;;;0.65;;
7529;SDS011;3806;52.270;10.544;2023-03-14T02:03:19;0.90;;;0.68;;
7529;SDS011;3806;52.270;10.544;2023-03-14T02:05:47;1.08;;;0.68;;
7529;SDS011;3806;52.270;10.544;2023-03-14T02:08:14;1.23;;;0.68;;
7529;SDS011;3806;52.270;10.544;2023-03-14T02:10:44;2.15;;;0.98;;
7529;SDS011;3806;52.270;10.544;2023-03-14T02:13:11;1.60;;;0.85;;
7529;SDS011;3806;52.270;10.544;2023-03-14T02:15:38;1.33;;;0.90;;
7529;SDS011;3806;52.270;10.544;2023-03-14T02:18:04;3.28;;;1.08;;
7529;SDS011;3806;52.270;10.544;2023-03-14T02:26:20;3.05;;;1.33;;
7529;SDS011;3806;52.270;10.544;2023-03-14T02:28:50;1.65;;;0.95;;
7529;SDS011;3806;52.270;10.544;2023-03-14T02:31:18;3.05;;;1.27;;
7529;SDS011;3806;52.270;10.544;2023-03-14T02:33:45;3.13;;;1.60;;
7529;SDS011;3806;52.270;10.544;2023-03-14T02:36:11;4.03;;;1.42;;
7529;SDS011;3806;52.270;10.544;2023-03-14T02:41:28;2.75;;;1.77;;
7529;SDS011;3806;52.270;10.544;2023-03-14T02:43:54;4.43;;;1.52;;
7529;SDS011;3806;52.270;10.544;2023-03-14T02:46:20;4.13;;;1.40;;
7529;SDS011;3806;52.270;10.544;2023-03-14T02:48:49;2.85;;;1.20;;
7529;SDS011;3806;52.270;10.544;2023-03-14T02:51:20;4.85;;;1.25;;
7529;SDS011;3806;52.270;10.544;2023-03-14T02:53:47;3.92;;;1.88;;
7529;SDS011;3806;52.270;10.544;2023-03-14T02:56:12;3.15;;;1.30;;
7529;SDS011;3806;52.270;10.544;2023-03-14T02:58:38;2.20;;;1.05;;
7529;SDS011;3806;52.270;10.544;2023-03-14T03:01:06;1.63;;;0.77;;
7529;SDS011;3806;52.270;10.544;2023-03-14T03:03:32;3.63;;;1.17;;
7529;SDS011;3806;52.270;10.544;2023-03-14T03:05:58;2.42;;;0.93;;
7529;SDS011;3806;52.270;10.544;2023-03-14T03:08:24;3.25;;;1.17;;
7529;SDS011;3806;52.270;10.544;2023-03-14T03:10:51;2.20;;;1.30;;
7529;SDS011;3806;52.270;10.544;2023-03-14T03:13:17;2.88;;;1.23;;
7529;SDS011;3806;52.270;10.544;2023-03-14T03:15:44;5.10;;;1.40;;
7529;SDS011;3806;52.270;10.544;2023-03-14T03:18:09;2.97;;;1.58;;
7529;SDS011;3806;52.270;10.544;2023-03-14T03:20:36;2.75;;;1.48;;
7529;SDS011;3806;52.270;10.544;2023-03-14T03:23:01;2.17;;;1.20;;
7529;SDS011;3806;52.270;10.544;2023-03-14T03:25:27;3.05;;;1.40;;
7529;SDS011;3806;52.270;10.544;2023-03-14T03:27:53;1.55;;;1.00;;
7529;SDS011;3806;52.270;10.544;2023-03-14T03:30:18;1.45;;;0.90;;
7529;SDS011;3806;52.270;10.544;2023-03-14T03:32:44;4.18;;;1.42;;
7529;SDS011;3806;52.270;10.544;2023-03-14T03:35:09;2.20;;;1.00;;
7529;SDS011;3806;52.270;10.544;2023-03-14T03:37:35;2.05;;;0.82;;
7529;SDS011;3806;52.270;10.544;2023-03-14T03:40:01;4.00;;;0.82;;
7529;SDS011;3806;52.270;10.544;2023-03-14T03:42:30;0.65;;;0.60;;
7529;SDS011;3806;52.270;10.544;2023-03-14T03:44:57;0.85;;;0.73;;
7529;SDS011;3806;52.270;10.544;2023-03-14T03:47:22;1.83;;;0.70;;
7529;SDS011;3806;52.270;10.544;2023-03-14T03:49:48;2.72;;;1.02;;
7529;SDS011;3806;52.270;10.544;2023-03-14T03:52:13;3.10;;;1.33;;
7529;SDS011;3806;52.270;10.544;2023-03-14T03:54:39;2.30;;;1.30;;
7529;SDS011;3806;52.270;10.544;2023-03-14T03:57:04;1.67;;;1.10;;
7529;SDS011;3806;52.270;10.544;2023-03-14T03:59:30;2.40;;;1.38;;
7529;SDS011;3806;52.270;10.544;2023-03-14T04:01:55;1.75;;;0.85;;
7529;SDS011;3806;52.270;10.544;2023-03-14T04:04:21;5.72;;;1.23;;
7529;SDS011;3806;52.270;10.544;2023-03-14T04:06:46;1.92;;;1.10;;
7529;SDS011;3806;52.270;10.544;2023-03-14T04:09:12;5.93;;;1.48;;
7529;SDS011;3806;52.270;10.544;2023-03-14T04:11:37;7.60;;;1.00;;
7529;SDS011;3806;52.270;10.544;2023-03-14T04:14:03;4.97;;;1.88;;
7529;SDS011;3806;52.270;10.544;2023-03-14T04:16:29;6.03;;;1.50;;
7529;SDS011;3806;52.270;10.544;2023-03-14T04:18:58;2.63;;;1.67;;
7529;SDS011;3806;52.270;10.544;2023-03-14T04:21:24;2.83;;;0.90;;
7529;SDS011;3806;52.270;10.544;2023-03-14T04:23:50;3.20;;;1.10;;
7529;SDS011;3806;52.270;10.544;2023-03-14T04:26:15;8.13;;;1.42;;
7529;SDS011;3806;52.270;10.544;2023-03-14T04:28:41;2.20;;;1.00;;
7529;SDS011;3806;52.270;10.544;2023-03-14T04:31:10;3.47;;;1.25;;
7529;SDS011;3806;52.270;10.544;2023-03-14T04:33:44;4.57;;;1.58;;
7529;SDS011;3806;52.270;10.544;2023-03-14T04:36:10;4.30;;;1.10;;
7529;SDS011;3806;52.270;10.544;2023-03-14T04:38:36;3.55;;;1.42;;
7529;SDS011;3806;52.270;10.544;2023-03-14T04:41:01;1.55;;;0.93;;
7529;SDS011;3806;52.270;10.544;2023-03-14T04:43:27;1.00;;;0.60;;
7529;SDS011;3806;52.270;10.544;2023-03-14T04:45:53;1.13;;;0.70;;
7529;SDS011;3806;52.270;10.544;2023-03-14T04:48:19;1.67;;;0.47;;
7529;SDS011;3806;52.270;10.544;2023-03-14T04:50:45;1.98;;;0.77;;
7529;SDS011;3806;52.270;10.544;2023-03-14T04:53:12;1.50;;;0.68;;
7529;SDS011;3806;52.270;10.544;2023-03-14T04:55:38;1.15;;;0.77;;
7529;SDS011;3806;52.270;10.544;2023-03-14T04:58:03;3.97;;;1.00;;
7529;SDS011;3806;52.270;10.544;2023-03-14T05:00:29;1.40;;;0.65;;
7529;SDS011;3806;52.270;10.544;2023-03-14T05:02:54;1.42;;;0.75;;
7529;SDS011;3806;52.270;10.544;2023-03-14T05:05:20;1.90;;;0.70;;
7529;SDS011;3806;52.270;10.544;2023-03-14T05:07:46;2.15;;;0.73;;
7529;SDS011;3806;52.270;10.544;2023-03-14T05:10:12;3.17;;;0.70;;
7529;SDS011;3806;52.270;10.544;2023-03-14T05:12:37;3.95;;;0.98;;
7529;SDS011;3806;52.270;10.544;2023-03-14T05:15:03;1.88;;;0.73;;
7529;SDS011;3806;52.270;10.544;2023-03-14T05:17:29;3.63;;;1.00;;
7529;SDS011;3806;52.270;10.544;2023-03-14T05:19:57;0.50;;;0.40;;
7529;SDS011;3806;52.270;10.544;2023-03-14T05:22:22;2.08;;;1.05;;
7529;SDS011;3806;52.270;10.544;2023-03-14T05:24:48;2.38;;;0.55;;
7529;SDS011;3806;52.270;10.544;2023-03-14T05:27:13;1.23;;;0.43;;
7529;SDS011;3806;52.270;10.544;2023-03-14T05:29:39;2.45;;;0.70;;
7529;SDS011;3806;52.270;10.544;2023-03-14T05:32:04;1.15;;;0.50;;
7529;SDS011;3806;52.270;10.544;2023-03-14T05:34:30;0.22;;;0.13;;
7529;SDS011;3806;52.270;10.544;2023-03-14T05:36:56;1.02;;;0.47;;
7529;SDS011;3806;52.270;10.544;2023-03-14T05:39:21;1.02;;;0.47;;
7529;SDS011;3806;52.270;10.544;2023-03-14T05:41:47;2.08;;;0.50;;
7529;SDS011;3806;52.270;10.544;2023-03-14T05:44:12;1.60;;;0.73;;
7529;SDS011;3806;52.270;10.544;2023-03-14T05:46:39;1.30;;;0.60;;
7529;SDS011;3806;52.270;10.544;2023-03-14T05:49:05;0.20;;;0.20;;
7529;SDS011;3806;52.270;10.544;2023-03-14T05:51:30;1.30;;;0.45;;
7529;SDS011;3806;52.270;10.544;2023-03-14T05:53:55;1.75;;;0.68;;
7529;SDS011;3806;52.270;10.544;2023-03-14T05:56:21;2.72;;;0.43;;
7529;SDS011;3806;52.270;10.544;2023-03-14T05:58:46;0.13;;;0.13;;
7529;SDS011;3806;52.270;10.544;2023-03-14T06:01:12;0.95;;;0.45;;
7529;SDS011;3806;52.270;10.544;2023-03-14T06:03:37;2.75;;;0.30;;
7529;SDS011;3806;52.270;10.544;2023-03-14T06:06:03;1.33;;;0.50;;
7529;SDS011;3806;52.270;10.544;2023-03-14T06:08:29;1.88;;;0.70;;
7529;SDS011;3806;52.270;10.544;2023-03-14T06:10:54;1.85;;;0.35;;
7529;SDS011;3806;52.270;10.544;2023-03-14T06:13:22;3.17;;;0.55;;
7529;SDS011;3806;52.270;10.544;2023-03-14T06:15:47;1.08;;;0.40;;
7529;SDS011;3806;52.270;10.544;2023-03-14T06:18:13;0.47;;;0.30;;
7529;SDS011;3806;52.270;10.544;2023-03-14T06:20:39;0.88;;;0.35;;
7529;SDS011;3806;52.270;10.544;2023-03-14T06:23:08;0.75;;;0.35;;
7529;SDS011;3806;52.270;10.544;2023-03-14T06:25:34;0.63;;;0.32;;
7529;SDS011;3806;52.270;10.544;2023-03-14T06:28:00;1.15;;;0.50;;
7529;SDS011;3806;52.270;10.544;2023-03-14T06:30:26;0.73;;;0.40;;
7529;SDS011;3806;52.270;10.544;2023-03-14T06:32:52;1.27;;;0.60;;
7529;SDS011;3806;52.270;10.544;2023-03-14T06:35:18;0.60;;;0.50;;
7529;SDS011;3806;52.270;10.544;2023-03-14T06:37:44;3.17;;;0.70;;
7529;SDS011;3806;52.270;10.544;2023-03-14T06:40:10;2.45;;;1.00;;
7529;SDS011;3806;52.270;10.544;2023-03-14T06:42:39;2.13;;;0.93;;
7529;SDS011;3806;52.270;10.544;2023-03-14T06:45:04;2.67;;;0.88;;
7529;SDS011;3806;52.270;10.544;2023-03-14T06:47:31;1.85;;;0.90;;
7529;SDS011;3806;52.270;10.544;2023-03-14T06:49:56;2.40;;;1.00;;
7529;SDS011;3806;52.270;10.544;2023-03-14T06:52:22;3.20;;;0.75;;
7529;SDS011;3806;52.270;10.544;2023-03-14T06:54:47;1.95;;;0.70;;
7529;SDS011;3806;52.270;10.544;2023-03-14T06:57:13;0.63;;;0.50;;
7529;SDS011;3806;52.270;10.544;2023-03-14T06:59:38;1.63;;;0.60;;
7529;SDS011;3806;52.270;10.544;2023-03-14T07:02:04;2.38;;;0.82;;
7529;SDS011;3806;52.270;10.544;2023-03-14T07:04:29;3.05;;;0.55;;
7529;SDS011;3806;52.270;10.544;2023-03-14T07:06:54;0.93;;;0.50;;
7529;SDS011;3806;52.270;10.544;2023-03-14T07:09:20;1.10;;;0.40;;
7529;SDS011;3806;52.270;10.544;2023-03-14T07:11:45;0.43;;;0.28;;
7529;SDS011;3806;52.270;10.544;2023-03-14T07:14:11;2.55;;;0.93;;
7529;SDS011;3806;52.270;10.544;2023-03-14T07:16:36;0.20;;;0.20;;
7529;SDS011;3806;52.270;10.544;2023-03-14T07:19:02;2.53;;;0.60;;
7529;SDS011;3806;52.270;10.544;2023-03-14T07:21:28;0.35;;;0.25;;
7529;SDS011;3806;52.270;10.544;2023-03-14T07:23:54;1.27;;;0.40;;
7529;SDS011;3806;52.270;10.544;2023-03-14T07:26:20;0.70;;;0.40;;
7529;SDS011;3806;52.270;10.544;2023-03-14T07:28:45;1.85;;;0.40;;
7529;SDS011;3806;52.270;10.544;2023-03-14T07:31:11;0.88;;;0.40;;
7529;SDS011;3806;52.270;10.544;2023-03-14T07:33:36;0.38;;;0.22;;
7529;SDS011;3806;52.270;10.544;2023-03-14T07:36:02;2.42;;;0.68;;
7529;SDS011;3806;52.270;10.544;2023-03-14T07:38:28;1.88;;;0.25;;
7529;SDS011;3806;52.270;10.544;2023-03-14T07:41:00;2.53;;;0.50;;
7529;SDS011;3806;52.270;10.544;2023-03-14T07:43:27;2.03;;;0.60;;
7529;SDS011;3806;52.270;10.544;2023-03-14T07:45:53;1.77;;;0.68;;
7529;SDS011;3806;52.270;10.544;2023-03-14T07:48:18;0.73;;;0.40;;
7529;SDS011;3806;52.270;10.544;2023-03-14T07:50:47;2.63;;;0.68;;
7529;SDS011;3806;52.270;10.544;2023-03-14T07:53:14;0.68;;;0.30;;
7529;SDS011;3806;52.270;10.544;2023-03-14T07:55:39;1.92;;;0.75;;
7529;SDS011;3806;52.270;10.544;2023-03-14T07:58:05;2.45;;;0.57;;
7529;SDS011;3806;52.270;10.544;2023-03-14T08:00:31;1.45;;;0.38;;
7529;SDS011;3806;52.270;10.544;2023-03-14T08:02:56;1.23;;;0.70;;
7529;SDS011;3806;52.270;10.544;2023-03-14T08:05:22;2.40;;;0.55;;
7529;SDS011;3806;52.270;10.544;2023-03-14T08:07:47;0.52;;;0.50;;
7529;SDS011;3806;52.270;10.544;2023-03-14T08:10:13;2.63;;;0.80;;
7529;SDS011;3806;52.270;10.544;2023-03-14T08:12:45;1.52;;;0.57;;
7529;SDS011;3806;52.270;10.544;2023-03-14T08:15:11;2.72;;;0.65;;
7529;SDS011;3806;52.270;10.544;2023-03-14T08:17:36;2.42;;;0.57;;
7529;SDS011;3806;52.270;10.544;2023-03-14T08:20:02;0.80;;;0.60;;
7529;SDS011;3806;52.270;10.544;2023-03-14T08:22:31;1.30;;;0.60;;
7529;SDS011;3806;52.270;10.544;2023-03-14T08:24:57;2.50;;;0.80;;
7529;SDS011;3806;52.270;10.544;2023-03-14T08:27:22;1.80;;;0.57;;
7529;SDS011;3806;52.270;10.544;2023-03-14T08:29:48;2.38;;;0.70;;
7529;SDS011;3806;52.270;10.544;2023-03-14T08:32:13;2.20;;;0.80;;
7529;SDS011;3806;52.270;10.544;2023-03-14T08:34:39;2.50;;;0.70;;
7529;SDS011;3806;52.270;10.544;2023-03-14T08:37:05;1.88;;;0.60;;
7529;SDS011;3806;52.270;10.544;2023-03-14T08:39:30;1.50;;;0.50;;
7529;SDS011;3806;52.270;10.544;2023-03-14T08:41:56;1.15;;;0.80;;
7529;SDS011;3806;52.270;10.544;2023-03-14T08:44:21;2.45;;;0.73;;
7529;SDS011;3806;52.270;10.544;2023-03-14T08:46:47;2.45;;;0.80;;
7529;SDS011;3806;52.270;10.544;2023-03-14T08:49:13;3.08;;;0.93;;
7529;SDS011;3806;52.270;10.544;2023-03-14T08:51:39;1.15;;;0.90;;
7529;SDS011;3806;52.270;10.544;2023-03-14T08:54:05;2.47;;;0.85;;
7529;SDS011;3806;52.270;10.544;2023-03-14T08:56:30;2.00;;;0.60;;
7529;SDS011;3806;52.270;10.544;2023-03-14T08:58:56;2.58;;;0.57;;
7529;SDS011;3806;52.270;10.544;2023-03-14T09:01:22;1.63;;;0.50;;
7529;SDS011;3806;52.270;10.544;2023-03-14T09:03:50;5.10;;;0.80;;
7529;SDS011;3806;52.270;10.544;2023-03-14T09:06:15;3.03;;;0.50;;
7529;SDS011;3806;52.270;10.544;2023-03-14T09:08:42;0.93;;;0.40;;
7529;SDS011;3806;52.270;10.544;2023-03-14T09:11:08;1.92;;;0.80;;
7529;SDS011;3806;52.270;10.544;2023-03-14T09:13:34;2.70;;;0.52;;
7529;SDS011;3806;52.270;10.544;2023-03-14T09:16:00;1.92;;;0.50;;
7529;SDS011;3806;52.270;10.544;2023-03-14T09:18:25;2.70;;;0.77;;
7529;SDS011;3806;52.270;10.544;2023-03-14T09:20:51;1.33;;;0.60;;
7529;SDS011;3806;52.270;10.544;2023-03-14T09:23:16;1.75;;;0.50;;
7529;SDS011;3806;52.270;10.544;2023-03-14T09:25:42;2.17;;;0.60;;
7529;SDS011;3806;52.270;10.544;2023-03-14T09:28:08;5.10;;;0.90;;
7529;SDS011;3806;52.270;10.544;2023-03-14T09:30:33;0.90;;;0.60;;
7529;SDS011;3806;52.270;10.544;2023-03-14T09:32:59;2.42;;;1.05;;
7529;SDS011;3806;52.270;10.544;2023-03-14T09:35:25;2.38;;;0.43;;
7529;SDS011;3806;52.270;10.544;2023-03-14T09:37:50;0.95;;;0.40;;
7529;SDS011;3806;52.270;10.544;2023-03-14T09:40:16;0.50;;;0.35;;
7529;SDS011;3806;52.270;10.544;2023-03-14T09:42:52;1.08;;;0.38;;
7529;SDS011;3806;52.270;10.544;2023-03-14T09:45:26;1.08;;;0.60;;
7529;SDS011;3806;52.270;10.544;2023-03-14T09:47:54;1.17;;;0.30;;
7529;SDS011;3806;52.270;10.544;2023-03-14T09:50:21;2.28;;;0.43;;
7529;SDS011;3806;52.270;10.544;2023-03-14T09:52:49;0.90;;;0.50;;
7529;SDS011;3806;52.270;10.544;2023-03-14T09:55:19;1.33;;;0.30;;
7529;SDS011;3806;52.270;10.544;2023-03-14T09:57:46;2.72;;;0.50;;
7529;SDS011;3806;52.270;10.544;2023-03-14T10:00:18;2.63;;;0.38;;
7529;SDS011;3806;52.270;10.544;2023-03-14T10:02:51;2.03;;;1.00;;
7529;SDS011;3806;52.270;10.544;2023-03-14T10:05:20;0.82;;;0.52;;
7529;SDS011;3806;52.270;10.544;2023-03-14T10:07:47;0.68;;;0.30;;
7529;SDS011;3806;52.270;10.544;2023-03-14T10:10:23;1.30;;;0.30;;
7529;SDS011;3806;52.270;10.544;2023-03-14T10:12:56;0.82;;;0.40;;
7529;SDS011;3806;52.270;10.544;2023-03-14T10:15:28;0.75;;;0.20;;
7529;SDS011;3806;52.270;10.544;2023-03-14T10:17:58;2.00;;;0.40;;
7529;SDS011;3806;52.270;10.544;2023-03-14T10:23:03;2.65;;;0.40;;
7529;SDS011;3806;52.270;10.544;2023-03-14T10:25:32;0.68;;;0.30;;
7529;SDS011;3806;52.270;10.544;2023-03-14T10:28:00;0.73;;;0.30;;
7529;SDS011;3806;52.270;10.544;2023-03-14T10:30:32;0.80;;;0.25;;
7529;SDS011;3806;52.270;10.544;2023-03-14T10:41:25;1.27;;;0.30;;
7529;SDS011;3806;52.270;10.544;2023-03-14T10:43:53;0.20;;;0.20;;
7529;SDS011;3806;52.270;10.544;2023-03-14T10:46:21;1.30;;;0.30;;
7529;SDS011;3806;52.270;10.544;2023-03-14T10:48:49;1.33;;;0.32;;
7529;SDS011;3806;52.270;10.544;2023-03-14T10:53:49;0.95;;;0.10;;
7529;SDS011;3806;52.270;10.544;2023-03-14T10:56:21;1.20;;;0.22;;
7529;SDS011;3806;52.270;10.544;2023-03-14T10:58:49;0.57;;;0.30;;
7529;SDS011;3806;52.270;10.544;2023-03-14T11:04:12;0.25;;;0.10;;
7529;SDS011;3806;52.270;10.544;2023-03-14T11:07:02;0.10;;;0.10;;
7529;SDS011;3806;52.270;10.544;2023-03-14T11:09:50;0.35;;;0.20;;
7529;SDS011;3806;52.270;10.544;2023-03-14T11:18:31;1.90;;;0.43;;
7529;SDS011;3806;52.270;10.544;2023-03-14T11:21:13;0.65;;;0.15;;
7529;SDS011;3806;52.270;10.544;2023-03-14T11:35:02;0.40;;;0.30;;
7529;SDS011;3806;52.270;10.544;2023-03-14T11:37:34;0.65;;;0.13;;
7529;SDS011;3806;52.270;10.544;2023-03-14T11:40:06;0.52;;;0.40;;
7529;SDS011;3806;52.270;10.544;2023-03-14T11:42:36;0.38;;;0.10;;
7529;SDS011;3806;52.270;10.544;2023-03-14T11:45:03;0.25;;;0.10;;
7529;SDS011;3806;52.270;10.544;2023-03-14T11:47:37;0.25;;;0.15;;
7529;SDS011;3806;52.270;10.544;2023-03-14T11:50:22;0.10;;;0.10;;
7529;SDS011;3806;52.270;10.544;2023-03-14T11:53:13;0.15;;;0.15;;
7529;SDS011;3806;52.270;10.544;2023-03-14T11:55:40;2.28;;;0.30;;
7529;SDS011;3806;52.270;10.544;2023-03-14T11:58:24;0.30;;;0.10;;
7529;SDS011;3806;52.270;10.544;2023-03-14T12:00:53;0.43;;;0.20;;
7529;SDS011;3806;52.270;10.544;2023-03-14T12:08:48;0.65;;;0.50;;
7529;SDS011;3806;52.270;10.544;2023-03-14T12:14:22;2.78;;;0.75;;
7529;SDS011;3806;52.270;10.544;2023-03-14T12:17:06;1.65;;;0.20;;
7529;SDS011;3806;52.270;10.544;2023-03-14T12:19:47;0.80;;;0.30;;
7529;SDS011;3806;52.270;10.544;2023-03-14T12:22:26;0.52;;;0.32;;
7529;SDS011;3806;52.270;10.544;2023-03-14T12:25:36;1.65;;;0.70;;
7529;SDS011;3806;52.270;10.544;2023-03-14T12:27:46;1.60;;;0.50;;
7529;SDS011;3806;52.270;10.544;2023-03-14T12:30:55;0.68;;;0.38;;
7529;SDS011;3806;52.270;10.544;2023-03-14T12:38:13;1.55;;;0.60;;
7529;SDS011;3806;52.270;10.544;2023-03-14T12:43:50;0.20;;;0.20;;
7529;SDS011;3806;52.270;10.544;2023-03-14T12:51:39;1.13;;;0.68;;
7529;SDS011;3806;52.270;10.544;2023-03-14T12:57:05;6.18;;;2.30;;
7529;SDS011;3806;52.270;10.544;2023-03-14T12:59:51;2.55;;;1.77;;
7529;SDS011;3806;52.270;10.544;2023-03-14T13:02:25;1.95;;;0.95;;
7529;SDS011;3806;52.270;10.544;2023-03-14T13:05:00;0.75;;;0.50;;
7529;SDS011;3806;52.270;10.544;2023-03-14T13:12:48;3.45;;;0.70;;
7529;SDS011;3806;52.270;10.544;2023-03-14T13:15:18;3.15;;;1.08;;
7529;SDS011;3806;52.270;10.544;2023-03-14T13:18:08;0.85;;;0.70;;
7529;SDS011;3806;52.270;10.544;2023-03-14T13:21:01;0.57;;;0.43;;
7529;SDS011;3806;52.270;10.544;2023-03-14T13:24:02;9.23;;;3.83;;
7529;SDS011;3806;52.270;10.544;2023-03-14T13:26:34;4.07;;;1.45;;
7529;SDS011;3806;52.270;10.544;2023-03-14T13:29:18;1.48;;;0.70;;
7529;SDS011;3806;52.270;10.544;2023-03-14T13:31:47;1.95;;;0.52;;
7529;SDS011;3806;52.270;10.544;2023-03-14T13:34:14;1.35;;;0.60;;
7529;SDS011;3806;52.270;10.544;2023-03-14T13:36:39;0.50;;;0.40;;
7529;SDS011;3806;52.270;10.544;2023-03-14T13:39:10;1.55;;;0.50;;
7529;SDS011;3806;52.270;10.544;2023-03-14T13:41:40;0.47;;;0.47;;
7529;SDS011;3806;52.270;10.544;2023-03-14T13:44:09;0.30;;;0.30;;
7529;SDS011;3806;52.270;10.544;2023-03-14T13:46:48;2.33;;;0.22;;
7529;SDS011;3806;52.270;10.544;2023-03-14T13:49:17;0.43;;;0.30;;
7529;SDS011;3806;52.270;10.544;2023-03-14T13:51:50;0.52;;;0.52;;
7529;SDS011;3806;52.270;10.544;2023-03-14T13:54:16;0.90;;;0.65;;
7529;SDS011;3806;52.270;10.544;2023-03-14T13:56:44;1.75;;;0.93;;
7529;SDS011;3806;52.270;10.544;2023-03-14T13:59:29;5.47;;;1.60;;
7529;SDS011;3806;52.270;10.544;2023-03-14T14:04:26;2.90;;;0.85;;
7529;SDS011;3806;52.270;10.544;2023-03-14T14:06:54;4.50;;;0.68;;
7529;SDS011;3806;52.270;10.544;2023-03-14T14:09:25;1.48;;;0.63;;
7529;SDS011;3806;52.270;10.544;2023-03-14T14:11:56;1.60;;;0.77;;
7529;SDS011;3806;52.270;10.544;2023-03-14T14:14:46;2.95;;;1.02;;
7529;SDS011;3806;52.270;10.544;2023-03-14T14:17:17;3.25;;;1.17;;
7529;SDS011;3806;52.270;10.544;2023-03-14T14:19:55;2.55;;;1.23;;
7529;SDS011;3806;52.270;10.544;2023-03-14T14:22:22;2.60;;;0.90;;
7529;SDS011;3806;52.270;10.544;2023-03-14T14:24:47;0.77;;;0.70;;
7529;SDS011;3806;52.270;10.544;2023-03-14T14:29:43;1.42;;;1.20;;
7529;SDS011;3806;52.270;10.544;2023-03-14T14:32:21;4.25;;;1.15;;
7529;SDS011;3806;52.270;10.544;2023-03-14T14:37:24;1.73;;;1.23;;
7529;SDS011;3806;52.270;10.544;2023-03-14T14:39:53;5.30;;;1.10;;
7529;SDS011;3806;52.270;10.544;2023-03-14T14:42:24;5.80;;;1.10;;
7529;SDS011;3806;52.270;10.544;2023-03-14T14:44:57;2.63;;;1.25;;
7529;SDS011;3806;52.270;10.544;2023-03-14T14:47:28;4.43;;;0.98;;
7529;SDS011;3806;52.270;10.544;2023-03-14T14:49:55;4.50;;;1.20;;
7529;SDS011;3806;52.270;10.544;2023-03-14T14:52:33;2.47;;;1.00;;
7529;SDS011;3806;52.270;10.544;2023-03-14T14:55:19;3.00;;;1.17;;
7529;SDS011;3806;52.270;10.544;2023-03-14T14:57:49;5.53;;;1.13;;
7529;SDS011;3806;52.270;10.544;2023-03-14T15:00:21;3.67;;;0.70;;
7529;SDS011;3806;52.270;10.544;2023-03-14T15:02:48;2.13;;;1.05;;
7529;SDS011;3806;52.270;10.544;2023-03-14T15:05:21;3.42;;;1.15;;
7529;SDS011;3806;52.270;10.544;2023-03-14T15:07:49;3.60;;;1.30;;
7529;SDS011;3806;52.270;10.544;2023-03-14T15:10:15;4.32;;;1.40;;
7529;SDS011;3806;52.270;10.544;2023-03-14T15:12:43;4.07;;;0.85;;
7529;SDS011;3806;52.270;10.544;2023-03-14T15:15:09;3.63;;;1.08;;
7529;SDS011;3806;52.270;10.544;2023-03-14T15:17:35;6.05;;;1.65;;
7529;SDS011;3806;52.270;10.544;2023-03-14T15:20:03;4.15;;;1.33;;
7529;SDS011;3806;52.270;10.544;2023-03-14T15:22:29;6.35;;;1.42;;
7529;SDS011;3806;52.270;10.544;2023-03-14T15:24:55;5.38;;;1.30;;
7529;SDS011;3806;52.270;10.544;2023-03-14T15:27:20;11.00;;;1.58;;
7529;SDS011;3806;52.270;10.544;2023-03-14T15:29:46;4.05;;;1.30;;
7529;SDS011;3806;52.270;10.544;2023-03-14T15:32:12;7.30;;;1.70;;
7529;SDS011;3806;52.270;10.544;2023-03-14T15:34:39;4.10;;;1.42;;
7529;SDS011;3806;52.270;10.544;2023-03-14T15:37:05;8.57;;;1.75;;
7529;SDS011;3806;52.270;10.544;2023-03-14T15:39:38;10.05;;;1.50;;
7529;SDS011;3806;52.270;10.544;2023-03-14T15:42:04;8.40;;;1.65;;
7529;SDS011;3806;52.270;10.544;2023-03-14T15:44:30;8.93;;;1.20;;
7529;SDS011;3806;52.270;10.544;2023-03-14T15:46:56;5.78;;;1.45;;
7529;SDS011;3806;52.270;10.544;2023-03-14T15:49:21;5.93;;;0.85;;
7529;SDS011;3806;52.270;10.544;2023-03-14T15:51:47;5.20;;;1.60;;
7529;SDS011;3806;52.270;10.544;2023-03-14T15:54:12;7.55;;;2.17;;
7529;SDS011;3806;52.270;10.544;2023-03-14T15:56:38;4.85;;;1.52;;
7529;SDS011;3806;52.270;10.544;2023-03-14T15:59:03;5.45;;;2.08;;
7529;SDS011;3806;52.270;10.544;2023-03-14T16:01:29;2.83;;;1.65;;
7529;SDS011;3806;52.270;10.544;2023-03-14T16:03:54;6.20;;;1.50;;
7529;SDS011;3806;52.270;10.544;2023-03-14T16:06:20;3.05;;;1.10;;
7529;SDS011;3806;52.270;10.544;2023-03-14T16:08:46;4.80;;;1.77;;
7529;SDS011;3806;52.270;10.544;2023-03-14T16:11:12;3.38;;;1.00;;
7529;SDS011;3806;52.270;10.544;2023-03-14T16:13:39;4.95;;;1.75;;
7529;SDS011;3806;52.270;10.544;2023-03-14T16:16:05;3.13;;;1.30;;
7529;SDS011;3806;52.270;10.544;2023-03-14T16:18:33;5.13;;;1.17;;
7529;SDS011;3806;52.270;10.544;2023-03-14T16:21:02;4.00;;;1.50;;
7529;SDS011;3806;52.270;10.544;2023-03-14T16:23:31;4.97;;;1.38;;
7529;SDS011;3806;52.270;10.544;2023-03-14T16:25:57;5.78;;;1.15;;
7529;SDS011;3806;52.270;10.544;2023-03-14T16:28:23;3.30;;;1.33;;